Time;durP1;ratioP1;P1;durP2;ratioP2;P2;SDS_P1;SDS_P2;PMS_P1;PMS_P2;Temp;Humidity;BMP_temperature;BMP_pressure;BME280_temperature;BME280_humidity;BME280_pressure;Samples;Min_cycle;Max_cycle;Signal;HPM_P1;HPM_P2
2021/07/25 00:00:44;;;;;;;16.03;14.10;;;20.00;85.70;;;;;;4927166;29;21523;-42
2021/07/25 00:03:12;;;;;;;20.70;13.80;;;20.00;85.80;;;;;;4913896;29;21332;-42
2021/07/25 00:05:41;;;;;;;15.67;13.77;;;20.00;85.80;;;;;;4925160;29;20443;-41
2021/07/25 00:08:11;;;;;;;21.27;15.73;;;20.00;85.70;;;;;;4926132;29;20452;-41
2021/07/25 00:10:46;;;;;;;21.40;15.37;;;20.00;85.70;;;;;;4925398;29;20448;-42
2021/07/25 00:13:16;;;;;;;16.10;13.13;;;20.00;85.60;;;;;;4930974;29;20499;-42
2021/07/25 00:15:43;;;;;;;15.70;14.00;;;20.00;85.60;;;;;;4931187;29;20481;-42
2021/07/25 00:18:11;;;;;;;16.20;13.87;;;20.00;85.60;;;;;;4925884;29;20464;-42
2021/07/25 00:20:37;;;;;;;16.67;13.03;;;20.00;85.60;;;;;;4925509;29;20828;-41
2021/07/25 00:23:05;;;;;;;14.40;12.47;;;19.90;85.60;;;;;;4926323;29;20460;-41
2021/07/25 00:25:34;;;;;;;15.90;13.60;;;19.90;85.60;;;;;;4931848;29;20531;-41
2021/07/25 00:28:01;;;;;;;16.37;13.40;;;19.90;85.60;;;;;;4931145;29;20456;-40
2021/07/25 00:30:28;;;;;;;16.00;14.10;;;19.90;85.60;;;;;;4934948;29;20456;-41
2021/07/25 00:32:55;;;;;;;14.37;12.83;;;19.90;85.60;;;;;;4930291;29;20511;-42
2021/07/25 00:35:22;;;;;;;16.50;12.73;;;19.90;85.50;;;;;;4925350;29;20501;-41
2021/07/25 00:37:52;;;;;;;19.07;12.73;;;19.80;85.50;;;;;;4925545;29;20488;-41
2021/07/25 00:40:43;;;;;;;15.53;12.87;;;19.80;85.50;;;;;;4927475;29;20469;-41
2021/07/25 00:43:24;;;;;;;16.43;13.73;;;19.80;85.50;;;;;;4924705;29;20841;-42
2021/07/25 00:45:51;;;;;;;15.83;13.37;;;19.80;85.50;;;;;;4930378;29;20551;-42
2021/07/25 00:48:19;;;;;;;19.93;14.03;;;19.70;85.50;;;;;;4928962;29;20456;-41
2021/07/25 00:50:46;;;;;;;19.57;13.77;;;19.70;85.40;;;;;;4925111;29;20559;-41
2021/07/25 00:53:13;;;;;;;15.10;13.50;;;19.70;85.50;;;;;;4923751;29;20977;-42
2021/07/25 00:55:41;;;;;;;18.80;13.93;;;19.70;85.40;;;;;;4913115;29;20914;-42
2021/07/25 00:58:08;;;;;;;16.13;13.97;;;19.70;85.50;;;;;;4921244;29;21016;-41
2021/07/25 01:00:35;;;;;;;17.90;13.00;;;19.60;85.40;;;;;;4920135;29;20486;-42
2021/07/25 01:03:11;;;;;;;19.20;14.60;;;19.60;85.50;;;;;;4920628;29;20664;-41
2021/07/25 01:06:05;;;;;;;19.37;14.13;;;19.60;85.70;;;;;;4922524;29;21046;-41
2021/07/25 01:08:41;;;;;;;13.90;12.27;;;19.60;85.70;;;;;;4926929;29;20452;-41
2021/07/25 01:11:11;;;;;;;15.37;12.40;;;19.60;85.70;;;;;;4924173;29;21260;-42
2021/07/25 01:13:41;;;;;;;17.20;13.80;;;19.60;85.50;;;;;;4924639;29;20713;-42
2021/07/25 01:16:09;;;;;;;22.10;13.27;;;19.50;85.70;;;;;;4924076;29;20459;-41
2021/07/25 01:18:47;;;;;;;21.53;14.40;;;19.50;85.70;;;;;;4932062;29;20463;-42
2021/07/25 01:21:15;;;;;;;17.33;14.50;;;19.50;85.70;;;;;;4930171;29;21111;-41
2021/07/25 01:23:44;;;;;;;16.00;12.00;;;19.50;85.70;;;;;;4926763;29;20475;-41
2021/07/25 01:26:12;;;;;;;19.03;15.30;;;19.50;85.70;;;;;;4926818;29;20547;-42
2021/07/25 01:28:49;;;;;;;16.00;13.00;;;19.50;85.70;;;;;;4924904;29;20478;-41
2021/07/25 01:31:26;;;;;;;14.33;12.83;;;19.50;85.70;;;;;;4925310;29;21001;-42
2021/07/25 01:33:54;;;;;;;19.87;13.53;;;19.40;85.70;;;;;;4926416;29;20522;-41
2021/07/25 01:36:21;;;;;;;17.73;13.83;;;19.40;85.90;;;;;;4929844;29;20543;-41
2021/07/25 01:38:48;;;;;;;16.73;14.17;;;19.40;85.90;;;;;;4924795;29;20919;-42
2021/07/25 01:41:16;;;;;;;17.30;13.70;;;19.40;85.90;;;;;;4925243;29;20456;-41
2021/07/25 01:43:46;;;;;;;18.60;12.93;;;19.40;85.90;;;;;;4923232;29;20962;-42
2021/07/25 01:46:15;;;;;;;19.03;15.33;;;19.30;86.00;;;;;;4927004;29;20490;-42
2021/07/25 01:48:43;;;;;;;18.10;14.40;;;19.30;86.00;;;;;;4930294;29;20467;-42
2021/07/25 01:51:14;;;;;;;17.77;12.70;;;19.40;85.90;;;;;;4925556;29;20470;-41
2021/07/25 01:53:42;;;;;;;14.73;12.60;;;19.30;85.80;;;;;;4928427;29;20523;-41
2021/07/25 01:56:09;;;;;;;16.43;12.10;;;19.30;85.70;;;;;;4924288;29;20542;-42
2021/07/25 01:58:35;;;;;;;18.07;12.50;;;19.40;85.30;;;;;;4926752;29;20534;-41
2021/07/25 02:01:03;;;;;;;17.17;13.07;;;19.30;85.20;;;;;;4924469;29;20551;-42
2021/07/25 02:03:30;;;;;;;21.20;13.40;;;19.30;85.10;;;;;;4928651;29;21130;-43
2021/07/25 02:05:57;;;;;;;15.50;12.70;;;19.30;84.90;;;;;;4928848;29;20970;-43
2021/07/25 02:08:24;;;;;;;23.00;12.93;;;19.20;84.90;;;;;;4922754;29;20510;-42
2021/07/25 02:10:52;;;;;;;16.50;12.77;;;19.20;84.80;;;;;;4923413;29;20994;-41
2021/07/25 02:13:21;;;;;;;17.67;13.40;;;19.20;84.90;;;;;;4923511;29;20497;-41
2021/07/25 02:15:48;;;;;;;16.00;12.83;;;19.20;85.00;;;;;;4921323;29;20860;-42
2021/07/25 02:18:16;;;;;;;17.20;13.00;;;19.10;85.20;;;;;;4923693;29;20459;-40
2021/07/25 02:20:43;;;;;;;16.30;13.23;;;19.20;85.20;;;;;;4927066;29;20550;-42
2021/07/25 02:23:10;;;;;;;15.30;13.07;;;19.10;85.20;;;;;;4924728;29;20548;-42
2021/07/25 02:25:38;;;;;;;16.93;13.53;;;19.10;85.10;;;;;;4925727;29;20464;-42
2021/07/25 02:28:08;;;;;;;16.07;13.00;;;19.10;85.20;;;;;;4927916;29;20460;-42
2021/07/25 02:30:36;;;;;;;18.13;12.77;;;19.00;85.30;;;;;;4924741;29;20543;-41
2021/07/25 02:33:04;;;;;;;15.80;13.10;;;19.00;85.50;;;;;;4927534;28;20542;-42
2021/07/25 02:35:32;;;;;;;17.97;13.00;;;19.10;85.60;;;;;;4925268;29;20467;-42
2021/07/25 02:37:59;;;;;;;15.37;12.80;;;19.00;85.70;;;;;;4927031;29;20863;-42
2021/07/25 02:40:26;;;;;;;17.70;13.13;;;19.00;85.80;;;;;;4922233;29;20896;-43
2021/07/25 02:42:53;;;;;;;16.90;13.90;;;19.10;85.90;;;;;;4923388;29;20902;-42
2021/07/25 02:45:19;;;;;;;17.27;13.77;;;19.10;86.00;;;;;;4925636;29;24103;-42
2021/07/25 02:47:46;;;;;;;15.47;13.37;;;19.10;86.10;;;;;;4927275;29;20505;-41
2021/07/25 02:50:13;;;;;;;14.90;13.27;;;19.10;86.20;;;;;;4922551;29;20543;-40
2021/07/25 02:52:40;;;;;;;17.47;12.90;;;19.10;86.30;;;;;;4925504;29;21072;-42
2021/07/25 02:55:07;;;;;;;17.17;13.93;;;19.10;86.40;;;;;;4924001;29;20470;-41
2021/07/25 02:57:37;;;;;;;17.17;14.30;;;19.20;86.30;;;;;;4929655;29;20475;-41
2021/07/25 03:00:04;;;;;;;16.10;13.53;;;19.20;86.00;;;;;;4924058;29;20535;-42
2021/07/25 03:02:31;;;;;;;17.33;13.37;;;19.10;86.00;;;;;;4927618;29;20496;-42
2021/07/25 03:04:58;;;;;;;17.07;12.73;;;19.10;86.00;;;;;;4925575;29;20467;-40
2021/07/25 03:07:25;;;;;;;22.17;14.90;;;19.10;86.00;;;;;;4923430;29;20499;-41
2021/07/25 03:09:51;;;;;;;18.10;13.60;;;19.10;86.00;;;;;;4926748;29;20488;-42
2021/07/25 03:12:18;;;;;;;16.77;14.77;;;19.00;86.10;;;;;;4926510;28;20514;-42
2021/07/25 03:14:46;;;;;;;18.83;14.43;;;19.00;86.10;;;;;;4922046;29;20457;-42
2021/07/25 03:17:13;;;;;;;20.20;14.70;;;19.10;86.20;;;;;;4922597;29;20508;-42
2021/07/25 03:19:39;;;;;;;19.57;15.47;;;19.00;86.20;;;;;;4922793;29;20471;-41
2021/07/25 03:22:09;;;;;;;22.97;17.60;;;19.00;86.30;;;;;;4923674;29;20506;-41
2021/07/25 03:24:36;;;;;;;29.77;20.90;;;19.10;86.50;;;;;;4926838;29;20575;-40
2021/07/25 03:27:03;;;;;;;29.10;20.40;;;19.10;86.70;;;;;;4923097;29;20653;-41
2021/07/25 03:29:30;;;;;;;29.30;19.57;;;19.10;86.80;;;;;;4926076;28;20465;-41
2021/07/25 03:31:57;;;;;;;25.03;17.70;;;19.10;86.80;;;;;;4925718;29;20495;-42
2021/07/25 03:34:24;;;;;;;25.80;17.53;;;19.10;86.80;;;;;;4923863;29;20471;-42
2021/07/25 03:36:51;;;;;;;25.37;16.93;;;19.10;86.90;;;;;;4921331;29;21002;-41
2021/07/25 03:39:20;;;;;;;24.20;16.97;;;19.10;87.00;;;;;;4924358;29;20455;-42
2021/07/25 03:41:47;;;;;;;23.37;17.90;;;19.10;87.10;;;;;;4923446;29;20844;-41
2021/07/25 03:44:14;;;;;;;20.73;17.30;;;19.20;87.20;;;;;;4922078;29;20547;-41
2021/07/25 03:46:41;;;;;;;26.40;18.97;;;19.20;87.10;;;;;;4925408;29;20499;-42
2021/07/25 03:49:09;;;;;;;25.23;17.07;;;19.20;87.20;;;;;;4929395;29;20460;-42
2021/07/25 03:51:37;;;;;;;24.47;18.37;;;19.20;87.30;;;;;;4926888;28;20962;-41
2021/07/25 03:54:04;;;;;;;23.83;17.07;;;19.30;87.00;;;;;;4923465;29;20463;-41
2021/07/25 03:56:33;;;;;;;20.90;15.83;;;19.30;87.10;;;;;;4922920;29;20539;-41
2021/07/25 03:59:00;;;;;;;24.37;16.17;;;19.30;87.20;;;;;;4920598;29;20486;-41
2021/07/25 04:01:26;;;;;;;22.53;16.60;;;19.30;87.30;;;;;;4927643;29;20488;-42
2021/07/25 04:03:53;;;;;;;21.33;14.60;;;19.30;87.50;;;;;;4921967;29;20625;-42
2021/07/25 04:06:20;;;;;;;21.07;15.80;;;19.40;87.30;;;;;;4924390;29;20582;-41
2021/07/25 04:08:47;;;;;;;19.97;15.07;;;19.40;87.50;;;;;;4925227;29;20544;-39
2021/07/25 04:11:19;;;;;;;20.07;15.23;;;19.40;87.60;;;;;;4924635;29;20510;-41
2021/07/25 04:13:47;;;;;;;21.80;15.37;;;19.40;87.60;;;;;;4924551;29;20491;-42
2021/07/25 04:16:14;;;;;;;20.97;13.97;;;19.50;87.40;;;;;;4919880;29;20461;-41
2021/07/25 04:18:41;;;;;;;21.20;14.23;;;19.50;87.40;;;;;;4922306;29;20457;-42
2021/07/25 04:21:08;;;;;;;20.93;15.00;;;19.50;87.30;;;;;;4924574;29;20503;-42
2021/07/25 04:23:39;;;;;;;23.13;14.33;;;19.60;87.10;;;;;;4925186;29;20596;-41
2021/07/25 04:26:06;;;;;;;18.80;14.33;;;19.50;87.30;;;;;;4925434;29;20551;-42
2021/07/25 04:28:34;;;;;;;18.63;13.70;;;19.50;87.40;;;;;;4923783;29;20540;-42
2021/07/25 04:31:01;;;;;;;20.17;14.63;;;19.50;87.60;;;;;;4921698;29;20885;-43
2021/07/25 04:33:29;;;;;;;17.20;13.60;;;19.50;87.70;;;;;;4914493;29;21085;-41
2021/07/25 04:35:57;;;;;;;22.97;15.30;;;19.60;87.40;;;;;;4926148;29;20531;-41
2021/07/25 04:38:24;;;;;;;21.30;15.17;;;19.60;87.00;;;;;;4920456;29;20466;-42
2021/07/25 04:40:59;;;;;;;19.27;13.97;;;19.60;87.00;;;;;;4925377;29;20531;-41
2021/07/25 04:43:30;;;;;;;19.83;13.10;;;19.60;87.30;;;;;;4925545;29;20476;-42
2021/07/25 04:46:04;;;;;;;18.03;13.07;;;19.60;87.50;;;;;;4923915;29;20451;-42
2021/07/25 04:48:31;;;;;;;16.47;12.57;;;19.70;87.30;;;;;;4920625;29;20471;-42
2021/07/25 04:51:05;;;;;;;17.13;12.77;;;19.70;87.00;;;;;;4925972;29;21073;-42
2021/07/25 04:53:41;;;;;;;20.40;12.40;;;19.60;87.20;;;;;;4924127;29;20493;-42
2021/07/25 04:56:13;;;;;;;18.53;13.30;;;19.70;87.00;;;;;;4922121;29;20464;-42
2021/07/25 04:59:14;;;;;;;14.87;12.50;;;19.70;86.80;;;;;;4923165;29;20481;-42
2021/07/25 05:01:45;;;;;;;18.33;12.50;;;19.70;86.80;;;;;;4922850;29;21053;-42
2021/07/25 05:04:13;;;;;;;13.87;11.90;;;19.70;86.40;;;;;;4926612;29;20522;-40
2021/07/25 05:06:39;;;;;;;20.50;14.00;;;19.70;86.30;;;;;;4929197;29;20556;-42
2021/07/25 05:09:07;;;;;;;18.20;14.70;;;19.70;86.40;;;;;;4923953;29;20550;-40
2021/07/25 05:11:44;;;;;;;17.23;13.83;;;19.70;86.70;;;;;;4925056;29;20556;-42
2021/07/25 05:14:19;;;;;;;18.03;13.60;;;19.70;86.80;;;;;;4926218;29;20520;-41
2021/07/25 05:17:04;;;;;;;20.87;15.63;;;19.70;86.70;;;;;;4931306;29;20458;-42
2021/07/25 05:20:03;;;;;;;17.97;14.33;;;19.80;86.60;;;;;;4929104;29;20511;-42
2021/07/25 05:22:44;;;;;;;18.60;13.33;;;19.80;86.70;;;;;;4928506;29;20483;-41
2021/07/25 05:25:15;;;;;;;15.90;13.57;;;19.70;86.90;;;;;;4926366;29;20993;-41
2021/07/25 05:27:47;;;;;;;16.87;13.10;;;19.80;87.10;;;;;;4926223;29;20538;-41
2021/07/25 05:30:19;;;;;;;16.73;12.80;;;19.80;87.00;;;;;;4924691;29;21242;-42
2021/07/25 05:32:46;;;;;;;20.33;12.93;;;19.80;86.80;;;;;;4918966;29;20514;-41
2021/07/25 05:35:13;;;;;;;15.77;12.40;;;19.90;86.20;;;;;;4928660;29;21029;-42
2021/07/25 05:37:41;;;;;;;16.90;11.20;;;20.00;85.90;;;;;;4922924;29;20502;-42
2021/07/25 05:40:09;;;;;;;16.60;10.93;;;20.00;85.80;;;;;;4925754;29;20477;-42
2021/07/25 05:42:38;;;;;;;14.43;11.53;;;20.10;84.50;;;;;;4929487;29;20465;-42
2021/07/25 05:45:10;;;;;;;14.00;10.07;;;20.10;84.30;;;;;;4930137;29;20465;-41
2021/07/25 05:47:37;;;;;;;13.87;10.30;;;20.20;84.20;;;;;;4927783;29;20555;-41
2021/07/25 05:50:05;;;;;;;14.77;10.70;;;20.10;84.40;;;;;;4927214;29;20470;-42
2021/07/25 05:52:51;;;;;;;15.80;10.57;;;20.10;84.40;;;;;;4927389;29;20574;-41
2021/07/25 05:55:22;;;;;;;10.70;9.60;;;20.10;84.70;;;;;;4925319;29;21329;-42
2021/07/25 05:57:49;;;;;;;18.53;11.03;;;20.20;84.40;;;;;;4925454;29;21179;-40
2021/07/25 06:00:17;;;;;;;13.30;10.00;;;20.30;83.90;;;;;;4923202;29;20460;-42
2021/07/25 06:02:54;;;;;;;11.20;9.00;;;20.30;83.50;;;;;;4923365;29;20548;-42
2021/07/25 06:05:21;;;;;;;13.60;10.57;;;20.30;83.60;;;;;;4923409;29;20490;-41
2021/07/25 06:07:48;;;;;;;13.97;10.63;;;20.20;83.90;;;;;;4925502;29;20552;-42
2021/07/25 06:10:16;;;;;;;13.80;10.97;;;20.30;84.00;;;;;;4925183;29;20543;-42
2021/07/25 06:12:43;;;;;;;13.17;10.70;;;20.30;84.10;;;;;;4922463;29;20495;-41
2021/07/25 06:15:10;;;;;;;14.73;9.70;;;20.30;84.00;;;;;;4926512;29;20547;-42
2021/07/25 06:17:37;;;;;;;12.13;9.27;;;20.30;83.90;;;;;;4925021;29;20480;-41
2021/07/25 06:20:04;;;;;;;13.07;8.63;;;20.30;83.90;;;;;;4928172;29;20845;-40
2021/07/25 06:22:46;;;;;;;13.90;10.50;;;20.40;83.60;;;;;;4926678;29;20519;-41
2021/07/25 06:25:15;;;;;;;12.10;10.47;;;20.50;83.20;;;;;;4923762;29;20873;-42
2021/07/25 06:27:41;;;;;;;12.70;9.40;;;20.60;82.90;;;;;;4923418;29;20997;-41
2021/07/25 06:30:09;;;;;;;11.40;9.83;;;20.60;83.10;;;;;;4919950;29;20456;-41
2021/07/25 06:33:12;;;;;;;12.03;9.93;;;20.70;82.80;;;;;;4918067;29;21079;-42
2021/07/25 06:35:41;;;;;;;12.57;9.67;;;20.70;82.40;;;;;;4860044;29;20478;-42
2021/07/25 06:38:10;;;;;;;11.37;9.50;;;20.80;81.80;;;;;;4906323;29;20474;-42
2021/07/25 06:40:40;;;;;;;11.43;9.17;;;20.80;82.10;;;;;;4916470;29;22623;-42
2021/07/25 06:43:07;;;;;;;11.37;9.00;;;20.90;82.20;;;;;;4919622;29;20464;-41
2021/07/25 06:45:35;;;;;;;10.60;9.10;;;21.00;82.00;;;;;;4917102;29;21213;-41
2021/07/25 06:48:02;;;;;;;12.03;9.90;;;21.00;81.90;;;;;;4918668;29;20949;-42
2021/07/25 06:50:31;;;;;;;11.13;9.73;;;21.10;81.80;;;;;;4916382;29;20472;-43
2021/07/25 06:52:58;;;;;;;10.40;9.20;;;21.20;81.30;;;;;;4916011;29;20491;-42
2021/07/25 06:55:27;;;;;;;13.57;9.50;;;21.20;80.90;;;;;;4916082;29;20467;-40
2021/07/25 06:57:55;;;;;;;13.03;9.43;;;21.30;80.90;;;;;;4916916;29;20499;-43
2021/07/25 07:00:22;;;;;;;12.80;10.23;;;21.40;80.60;;;;;;4920367;29;20495;-42
2021/07/25 07:02:51;;;;;;;12.63;9.10;;;21.60;79.80;;;;;;4921050;29;20472;-42
2021/07/25 07:05:20;;;;;;;18.10;9.00;;;21.70;79.20;;;;;;4922624;29;20465;-41
2021/07/25 07:07:48;;;;;;;10.80;9.23;;;21.70;78.80;;;;;;4926944;29;20555;-42
2021/07/25 07:10:17;;;;;;;9.80;8.70;;;21.70;78.90;;;;;;4923088;29;20510;-43
2021/07/25 07:12:45;;;;;;;9.60;7.70;;;21.70;79.00;;;;;;4922219;29;20514;-43
2021/07/25 07:15:13;;;;;;;12.40;9.40;;;21.70;78.90;;;;;;4921379;29;20451;-41
2021/07/25 07:17:40;;;;;;;12.27;9.47;;;21.70;78.60;;;;;;4923595;29;20812;-41
2021/07/25 07:20:11;;;;;;;11.30;10.10;;;21.70;78.70;;;;;;4923604;29;20483;-42
2021/07/25 07:22:38;;;;;;;9.47;8.17;;;21.80;78.90;;;;;;4923687;29;20468;-41
2021/07/25 07:25:06;;;;;;;11.80;10.00;;;21.80;78.80;;;;;;4926387;29;20538;-42
2021/07/25 07:27:34;;;;;;;13.60;9.93;;;21.90;78.60;;;;;;4925404;29;20455;-39
2021/07/25 07:30:05;;;;;;;11.10;9.13;;;22.00;78.20;;;;;;4923098;29;20914;-42
2021/07/25 07:32:31;;;;;;;9.20;8.30;;;22.20;78.10;;;;;;4920134;29;20922;-40
2021/07/25 07:34:58;;;;;;;9.03;8.13;;;22.50;77.50;;;;;;4927524;29;20896;-41
2021/07/25 07:37:25;;;;;;;9.83;8.83;;;22.60;76.20;;;;;;4923408;29;20506;-42
2021/07/25 07:39:52;;;;;;;9.27;8.33;;;22.70;75.50;;;;;;4924088;29;20466;-42
2021/07/25 07:42:19;;;;;;;8.80;8.00;;;22.80;75.30;;;;;;4924908;29;20455;-42
2021/07/25 07:44:46;;;;;;;9.83;8.00;;;22.90;74.60;;;;;;4927784;29;20491;-42
2021/07/25 07:47:13;;;;;;;13.50;8.40;;;22.90;74.70;;;;;;4924323;29;20465;-42
2021/07/25 07:49:39;;;;;;;9.17;8.27;;;23.00;74.50;;;;;;4926865;29;20472;-42
2021/07/25 07:52:07;;;;;;;10.60;8.87;;;23.00;73.80;;;;;;4924267;29;20506;-42
2021/07/25 07:54:34;;;;;;;8.77;7.90;;;23.00;73.90;;;;;;4920744;29;20603;-41
2021/07/25 07:57:01;;;;;;;12.70;9.03;;;23.00;74.20;;;;;;4922554;29;20498;-42
2021/07/25 07:59:28;;;;;;;11.37;7.97;;;22.90;74.30;;;;;;4920947;29;20494;-41
2021/07/25 08:01:55;;;;;;;10.97;9.03;;;22.90;74.20;;;;;;4928511;29;20509;-41
2021/07/25 08:04:22;;;;;;;9.93;8.07;;;22.90;74.10;;;;;;4928630;29;20467;-40
2021/07/25 08:06:49;;;;;;;8.47;7.63;;;23.00;74.00;;;;;;4924966;29;20960;-42
2021/07/25 08:09:15;;;;;;;11.13;9.63;;;23.10;73.20;;;;;;4925920;29;20478;-42
2021/07/25 08:11:46;;;;;;;11.23;8.23;;;23.10;72.00;;;;;;4922850;29;20543;-43
2021/07/25 08:14:19;;;;;;;9.50;7.47;;;23.20;72.50;;;;;;4926595;29;20545;-42
2021/07/25 08:16:48;;;;;;;8.27;7.47;;;23.30;72.70;;;;;;4927666;29;20454;-42
2021/07/25 08:19:15;;;;;;;8.23;7.40;;;23.30;72.00;;;;;;4924011;29;20459;-42
2021/07/25 08:21:43;;;;;;;9.50;8.10;;;23.40;72.20;;;;;;4906419;29;20455;-42
2021/07/25 08:24:10;;;;;;;8.47;6.87;;;23.40;72.40;;;;;;4925283;29;20464;-42
2021/07/25 08:26:37;;;;;;;9.20;7.60;;;23.40;72.90;;;;;;4924493;29;20464;-42
2021/07/25 08:29:04;;;;;;;8.77;6.70;;;23.40;73.00;;;;;;4924707;29;20571;-42
2021/07/25 08:31:30;;;;;;;8.40;7.57;;;23.60;72.50;;;;;;4925080;29;20557;-42
2021/07/25 08:33:57;;;;;;;9.10;6.50;;;23.90;71.90;;;;;;4926249;29;21058;-42
2021/07/25 08:36:24;;;;;;;7.80;7.10;;;24.10;69.40;;;;;;4923427;29;20950;-42
2021/07/25 08:38:51;;;;;;;9.30;7.80;;;24.20;68.80;;;;;;4924752;29;20464;-42
2021/07/25 08:42:05;;;;;;;8.63;7.03;;;24.40;68.90;;;;;;4923409;29;20562;-42
2021/07/25 08:44:48;;;;;;;7.27;6.57;;;24.60;68.10;;;;;;4903903;29;20578;-42
2021/07/25 08:47:32;;;;;;;8.23;7.33;;;24.80;66.80;;;;;;4922087;29;20569;-42
2021/07/25 08:50:11;;;;;;;10.00;7.53;;;24.80;67.10;;;;;;4924522;29;20464;-42
2021/07/25 08:52:43;;;;;;;6.90;6.20;;;24.80;67.70;;;;;;4924307;29;20552;-42
2021/07/25 08:55:18;;;;;;;11.60;7.50;;;25.00;67.80;;;;;;4925545;29;20495;-42
2021/07/25 08:57:47;;;;;;;7.60;6.50;;;25.00;67.30;;;;;;4922700;29;20986;-42
2021/07/25 09:00:17;;;;;;;8.27;6.77;;;25.00;66.00;;;;;;4922494;29;20924;-42
2021/07/25 09:02:44;;;;;;;7.87;6.90;;;25.00;65.70;;;;;;4925022;29;20467;-42
2021/07/25 09:05:12;;;;;;;6.50;5.90;;;25.00;66.80;;;;;;4928055;29;20533;-42
2021/07/25 09:07:41;;;;;;;5.97;5.40;;;25.10;67.00;;;;;;4926942;29;20460;-42
2021/07/25 09:10:12;;;;;;;6.50;5.60;;;25.30;65.00;;;;;;4928147;29;20483;-42
2021/07/25 09:12:39;;;;;;;7.17;6.47;;;25.50;64.40;;;;;;4928158;29;21100;-43
2021/07/25 09:15:13;;;;;;;9.20;6.87;;;25.60;64.20;;;;;;4927365;29;20491;-41
2021/07/25 09:17:41;;;;;;;6.13;5.53;;;25.90;63.30;;;;;;4925501;29;20537;-42
2021/07/25 09:20:23;;;;;;;6.87;6.03;;;26.30;63.30;;;;;;4923152;29;20470;-43
2021/07/25 09:22:49;;;;;;;6.30;5.40;;;26.60;61.80;;;;;;4927034;29;20463;-42
2021/07/25 09:25:22;;;;;;;6.70;6.00;;;26.70;60.30;;;;;;4928106;29;20459;-42
2021/07/25 09:28:12;;;;;;;7.13;6.20;;;26.60;60.10;;;;;;4927351;29;20469;-42
2021/07/25 09:30:39;;;;;;;7.13;6.10;;;26.30;61.20;;;;;;4927799;29;20547;-43
2021/07/25 09:33:25;;;;;;;6.27;5.67;;;26.00;62.10;;;;;;4923215;29;20489;-43
2021/07/25 09:35:52;;;;;;;6.07;5.47;;;26.20;61.30;;;;;;4924985;29;20462;-42
2021/07/25 09:38:19;;;;;;;6.07;5.43;;;26.50;60.40;;;;;;4926376;29;20543;-42
2021/07/25 09:40:47;;;;;;;10.07;5.87;;;26.90;59.30;;;;;;4908402;29;21117;-42
2021/07/25 09:43:25;;;;;;;6.33;5.60;;;27.40;58.60;;;;;;4924990;29;20613;-42
2021/07/25 09:45:54;;;;;;;5.63;5.03;;;28.10;57.90;;;;;;4929650;29;20315;-43
2021/07/25 09:48:25;;;;;;;5.73;5.10;;;28.70;55.70;;;;;;4928807;29;20239;-41
2021/07/25 09:50:55;;;;;;;4.72;4.32;;;29.30;53.90;;;;;;4925477;29;20206;-42
2021/07/25 09:53:44;;;;;;;6.65;4.72;;;29.80;53.40;;;;;;4927319;29;20223;-42
2021/07/25 09:56:12;;;;;;;6.53;5.10;;;30.30;52.70;;;;;;4922978;29;20232;-43
2021/07/25 09:58:39;;;;;;;6.80;5.45;;;30.70;50.90;;;;;;4921099;29;20206;-42
2021/07/25 10:01:06;;;;;;;7.03;4.97;;;31.00;50.20;;;;;;4925469;29;20210;-40
2021/07/25 10:03:33;;;;;;;4.95;4.38;;;31.40;49.70;;;;;;4926943;29;20208;-42
2021/07/25 10:06:26;;;;;;;6.38;4.88;;;31.70;48.60;;;;;;4917566;29;20766;-43
2021/07/25 10:09:10;;;;;;;6.30;4.55;;;32.10;47.60;;;;;;4920370;29;20216;-44
2021/07/25 10:11:40;;;;;;;5.07;4.50;;;32.50;47.10;;;;;;4919999;29;20555;-42
2021/07/25 10:14:06;;;;;;;5.70;5.18;;;32.80;46.10;;;;;;4921403;29;20327;-44
2021/07/25 10:16:33;;;;;;;8.27;4.40;;;33.20;45.30;;;;;;4923001;29;20204;-44
2021/07/25 10:19:04;;;;;;;5.97;4.60;;;33.50;44.40;;;;;;4921614;29;20208;-43
2021/07/25 10:21:33;;;;;;;5.10;4.60;;;33.80;42.90;;;;;;4894169;29;20238;-44
2021/07/25 10:24:03;;;;;;;6.28;4.63;;;34.00;42.60;;;;;;4924693;29;20235;-42
2021/07/25 10:26:30;;;;;;;5.32;4.80;;;34.10;42.80;;;;;;4920161;29;20682;-43
2021/07/25 10:28:58;;;;;;;6.43;4.70;;;34.20;42.90;;;;;;4920980;29;20224;-43
2021/07/25 10:31:27;;;;;;;5.47;4.22;;;34.30;42.30;;;;;;4905724;29;20300;-42
2021/07/25 10:33:55;;;;;;;5.43;4.55;;;34.50;41.60;;;;;;4909242;29;20318;-42
2021/07/25 10:36:23;;;;;;;6.00;4.85;;;34.60;42.40;;;;;;4924660;29;20262;-43
2021/07/25 10:38:50;;;;;;;5.25;4.38;;;34.70;41.80;;;;;;4919126;29;20774;-43
2021/07/25 10:41:26;;;;;;;6.88;5.07;;;34.70;41.80;;;;;;4923314;29;20204;-43
2021/07/25 10:43:53;;;;;;;5.32;4.38;;;34.60;41.10;;;;;;4923738;29;20233;-43
2021/07/25 10:46:22;;;;;;;4.35;3.80;;;34.30;41.70;;;;;;4921465;29;20688;-42
2021/07/25 10:49:09;;;;;;;4.60;4.20;;;34.00;41.90;;;;;;4924045;29;20673;-44
2021/07/25 10:51:54;;;;;;;4.45;4.10;;;33.50;42.60;;;;;;4920171;29;20214;-43
2021/07/25 10:54:24;;;;;;;7.38;4.20;;;32.90;43.50;;;;;;4922545;29;20578;-43
2021/07/25 10:57:06;;;;;;;5.68;4.65;;;32.40;43.80;;;;;;4922361;29;20208;-42
2021/07/25 10:59:55;;;;;;;4.55;4.07;;;31.90;44.90;;;;;;4908241;29;20208;-43
2021/07/25 11:02:22;;;;;;;4.90;4.50;;;31.60;45.40;;;;;;4904050;29;20271;-43
2021/07/25 11:04:54;;;;;;;5.22;4.72;;;31.20;46.10;;;;;;4921855;29;20669;-43
2021/07/25 11:07:24;;;;;;;6.70;4.45;;;30.90;46.70;;;;;;4926055;29;20207;-42
2021/07/25 11:10:01;;;;;;;5.80;4.88;;;30.50;47.50;;;;;;4924654;29;20287;-40
2021/07/25 11:12:54;;;;;;;6.55;4.97;;;30.00;48.40;;;;;;4896540;29;20306;-42
2021/07/25 11:15:32;;;;;;;4.28;3.88;;;29.80;49.00;;;;;;4920351;29;20322;-43
2021/07/25 11:18:02;;;;;;;5.18;3.83;;;29.70;48.80;;;;;;4926736;29;20765;-42
2021/07/25 11:20:38;;;;;;;7.07;4.65;;;29.50;49.10;;;;;;4927336;29;20244;-44
2021/07/25 11:23:13;;;;;;;4.55;4.15;;;29.40;48.30;;;;;;4924220;29;20212;-43
2021/07/25 11:25:40;;;;;;;3.75;3.45;;;29.20;49.10;;;;;;4925455;29;20234;-42
2021/07/25 11:28:10;;;;;;;4.40;3.70;;;29.00;49.60;;;;;;4922128;29;20219;-43
2021/07/25 11:30:52;;;;;;;5.90;4.57;;;28.80;49.50;;;;;;4924149;29;20215;-42
2021/07/25 11:33:43;;;;;;;5.47;3.90;;;28.70;49.30;;;;;;4922283;29;20251;-42
2021/07/25 11:36:11;;;;;;;7.40;4.60;;;28.50;50.10;;;;;;4907415;29;20275;-43
2021/07/25 11:38:40;;;;;;;6.20;4.10;;;28.40;51.30;;;;;;4919810;29;20662;-42
2021/07/25 11:41:09;;;;;;;3.23;2.60;;;28.30;51.50;;;;;;4921552;29;20203;-42
2021/07/25 11:43:55;;;;;;;5.13;3.13;;;28.30;48.90;;;;;;4922107;29;20291;-42
2021/07/25 11:46:27;;;;;;;4.83;3.53;;;28.30;50.00;;;;;;4922053;29;20814;-42
2021/07/25 11:49:06;;;;;;;5.50;3.43;;;28.20;50.60;;;;;;4903246;29;20204;-43
2021/07/25 11:51:34;;;;;;;3.60;3.30;;;28.30;50.80;;;;;;4922586;29;20302;-43
2021/07/25 11:54:01;;;;;;;3.43;3.13;;;28.30;51.00;;;;;;4909421;29;20231;-43
2021/07/25 11:56:29;;;;;;;5.50;3.30;;;28.40;50.00;;;;;;4923662;29;20212;-42
2021/07/25 11:59:07;;;;;;;5.20;4.60;;;28.30;50.40;;;;;;4925921;29;20700;-43
2021/07/25 12:01:35;;;;;;;4.30;3.00;;;28.20;49.90;;;;;;4924441;29;20199;-43
2021/07/25 12:04:24;;;;;;;3.67;2.73;;;28.10;48.90;;;;;;4924883;29;20218;-41
2021/07/25 12:07:01;;;;;;;3.27;2.70;;;28.10;50.20;;;;;;4924491;29;20237;-42
2021/07/25 12:09:28;;;;;;;3.30;3.00;;;28.10;50.40;;;;;;4927803;29;20211;-43
2021/07/25 12:12:07;;;;;;;4.63;3.20;;;28.00;50.20;;;;;;4927074;29;20590;-42
2021/07/25 12:14:36;;;;;;;3.87;3.53;;;27.90;51.00;;;;;;4924314;29;20283;-43
2021/07/25 12:17:04;;;;;;;5.00;3.10;;;27.90;49.40;;;;;;4913687;29;20211;-43
2021/07/25 12:19:42;;;;;;;4.37;2.97;;;27.80;49.30;;;;;;4925564;29;20204;-42
2021/07/25 12:22:13;;;;;;;4.80;3.30;;;27.80;49.10;;;;;;4916335;29;20729;-42
2021/07/25 12:24:51;;;;;;;11.23;6.10;;;27.70;49.60;;;;;;4926352;29;20214;-42
2021/07/25 12:27:25;;;;;;;6.07;5.47;;;27.80;50.70;;;;;;4924232;29;20283;-41
2021/07/25 12:29:52;;;;;;;2.90;2.60;;;27.90;49.00;;;;;;4925114;29;20212;-43
2021/07/25 12:32:36;;;;;;;20.40;18.60;;;27.90;48.40;;;;;;4925020;29;20231;-43
2021/07/25 12:35:08;;;;;;;4.93;4.40;;;28.00;48.60;;;;;;4925894;29;20278;-42
2021/07/25 12:37:56;;;;;;;2.60;2.40;;;28.00;48.30;;;;;;4925515;29;20653;-43
2021/07/25 12:40:27;;;;;;;3.00;2.77;;;28.00;49.00;;;;;;4927610;29;20218;-43
2021/07/25 12:42:56;;;;;;;4.13;3.10;;;28.10;49.30;;;;;;4923955;29;20291;-42
2021/07/25 12:45:32;;;;;;;4.40;2.97;;;28.10;49.40;;;;;;4922974;29;20216;-41
2021/07/25 12:48:12;;;;;;;3.10;2.80;;;28.20;49.60;;;;;;4924271;29;20211;-43
2021/07/25 12:51:03;;;;;;;2.77;2.57;;;28.20;49.00;;;;;;4927945;29;20246;-42
2021/07/25 12:53:37;;;;;;;4.33;2.23;;;28.20;49.30;;;;;;4926421;29;20212;-40